Time,TemperatureF,DewpointF,PressureIn,WindDirection,WindDirectionDegrees,WindSpeedMPH,WindSpeedGustMPH,Humidity,HourlyPrecipIn,Conditions,Clouds,dailyrainin,SolarRadiationWatts/m^2,SoftwareType,DateUTC
2013-05-27 00:21:00,56.0,7.0,-100.00,NNE,22,4.0,7.0,14,-99.99,,,0.00,0.000000,,2013-05-27 06:21:00,
2013-05-27 00:32:00,56.0,7.0,-100.00,NNE,22,4.0,7.0,14,-99.99,,,0.00,0.000000,,2013-05-27 06:32:00,
2013-05-27 00:41:00,56.0,7.0,-100.00,NNE,22,4.0,7.0,14,-99.99,,,0.00,0.000000,,2013-05-27 06:41:00,
2013-05-27 00:52:00,56.0,7.0,-100.00,NNE,22,4.0,7.0,14,-99.99,,,0.00,0.000000,,2013-05-27 06:52:00,
2013-05-27 01:21:00,54.0,9.0,-100.00,ENE,77,1.0,7.0,16,0.00,,,0.00,0.000000,,2013-05-27 07:21:00,
2013-05-27 01:31:00,54.0,9.0,-100.00,ENE,77,1.0,7.0,16,0.00,,,0.00,0.000000,,2013-05-27 07:31:00,
2013-05-27 01:41:00,54.0,9.0,-100.00,ENE,77,1.0,7.0,16,0.00,,,0.00,0.000000,,2013-05-27 07:41:00,
2013-05-27 01:52:00,54.0,9.0,-100.00,ENE,77,1.0,7.0,16,0.00,,,0.00,0.000000,,2013-05-27 07:52:00,
2013-05-27 02:21:00,53.0,11.0,-100.00,ENE,68,0.0,6.0,18,-99.99,,,0.00,0.000000,,2013-05-27 08:21:00,
2013-05-27 02:32:00,53.0,11.0,-100.00,ENE,68,0.0,6.0,18,-99.99,,,0.00,0.000000,,2013-05-27 08:32:00,
2013-05-27 03:21:00,49.0,7.0,-100.00,NNE,25,6.0,8.0,18,-99.99,,,-99.99,0.000000,,2013-05-27 09:21:00,
2013-05-27 03:33:00,49.0,7.0,-100.00,NNE,25,6.0,8.0,18,-99.99,,,-99.99,0.000000,,2013-05-27 09:33:00,
2013-05-27 03:42:00,49.0,7.0,-100.00,NNE,25,6.0,8.0,18,-99.99,,,-99.99,0.000000,,2013-05-27 09:42:00,
2013-05-27 03:52:00,49.0,7.0,-100.00,NNE,25,6.0,8.0,18,-99.99,,,-99.99,0.000000,,2013-05-27 09:52:00,
2013-05-27 04:22:00,48.0,8.0,-100.00,NNE,26,5.0,9.0,19,-99.99,,,0.00,0.000000,,2013-05-27 10:22:00,
2013-05-27 04:32:00,48.0,8.0,-100.00,NNE,26,5.0,9.0,19,-99.99,,,0.00,0.000000,,2013-05-27 10:32:00,
2013-05-27 04:42:00,48.0,8.0,-100.00,NNE,26,5.0,9.0,19,-99.99,,,0.00,0.000000,,2013-05-27 10:42:00,
2013-05-27 04:52:00,48.0,8.0,-100.00,NNE,26,5.0,9.0,19,-99.99,,,0.00,0.000000,,2013-05-27 10:52:00,
2013-05-27 05:21:00,47.0,8.0,-100.00,NNE,21,5.0,9.0,20,-99.99,,,0.00,0.000000,,2013-05-27 11:21:00,
2013-05-27 05:32:00,47.0,8.0,-100.00,NNE,21,5.0,9.0,20,-99.99,,,0.00,0.000000,,2013-05-27 11:32:00,
2013-05-27 06:21:00,46.0,9.0,-100.00,NNE,21,6.0,8.0,22,-99.99,,,0.00,1.000000,,2013-05-27 12:21:00,
2013-05-27 06:32:00,46.0,9.0,-100.00,NNE,21,6.0,8.0,22,-99.99,,,0.00,1.000000,,2013-05-27 12:32:00,
2013-05-27 07:21:00,47.0,14.0,-100.00,NNE,18,2.0,6.0,26,0.00,,,0.00,39.000000,,2013-05-27 13:21:00,
2013-05-27 07:32:00,47.0,14.0,-100.00,NNE,18,2.0,6.0,26,0.00,,,0.00,39.000000,,2013-05-27 13:32:00,
2013-05-27 07:41:00,47.0,14.0,-100.00,NNE,18,2.0,6.0,26,0.00,,,0.00,39.000000,,2013-05-27 13:41:00,
2013-05-27 07:52:00,47.0,14.0,-100.00,NNE,18,2.0,6.0,26,0.00,,,0.00,39.000000,,2013-05-27 13:52:00,
2013-05-27 08:21:00,53.0,18.0,-100.00,NE,36,0.0,6.0,25,-99.99,,,-99.99,202.000000,,2013-05-27 14:21:00,
2013-05-27 08:42:00,53.0,18.0,-100.00,NE,36,0.0,6.0,25,-99.99,,,-99.99,202.000000,,2013-05-27 14:42:00,
2013-05-27 08:51:00,53.0,18.0,-100.00,NE,36,0.0,6.0,25,-99.99,,,-99.99,202.000000,,2013-05-27 14:51:00,
2013-05-27 09:21:00,58.0,15.0,-100.00,SE,139,5.0,9.0,18,0.00,,,0.00,463.000000,,2013-05-27 15:21:00,
2013-05-27 09:33:00,58.0,15.0,-100.00,SE,139,5.0,9.0,18,0.00,,,0.00,463.000000,,2013-05-27 15:33:00,
2013-05-27 09:43:00,58.0,15.0,-100.00,SE,139,5.0,9.0,18,0.00,,,0.00,463.000000,,2013-05-27 15:43:00,
2013-05-27 09:53:00,58.0,15.0,-100.00,SE,139,5.0,9.0,18,0.00,,,0.00,463.000000,,2013-05-27 15:53:00,
2013-05-27 10:23:00,62.0,15.0,-100.00,SSW,193,5.0,8.0,16,0.00,,,0.00,669.000000,,2013-05-27 16:23:00,
2013-05-27 10:33:00,62.0,15.0,-100.00,SSW,193,5.0,8.0,16,0.00,,,0.00,669.000000,,2013-05-27 16:33:00,
2013-05-27 10:42:00,62.0,15.0,-100.00,SSW,193,5.0,8.0,16,0.00,,,0.00,669.000000,,2013-05-27 16:42:00,
2013-05-27 10:52:00,62.0,15.0,-100.00,SSW,193,5.0,8.0,16,0.00,,,0.00,669.000000,,2013-05-27 16:52:00,
2013-05-27 11:22:00,66.0,15.0,-100.00,SSW,194,6.0,10.0,14,0.00,,,0.00,846.000000,,2013-05-27 17:22:00,
2013-05-27 11:32:00,66.0,15.0,-100.00,SSW,194,6.0,10.0,14,0.00,,,0.00,846.000000,,2013-05-27 17:32:00,
2013-05-27 11:43:00,66.0,15.0,-100.00,SSW,194,6.0,10.0,14,0.00,,,0.00,846.000000,,2013-05-27 17:43:00,
2013-05-27 11:52:00,66.0,15.0,-100.00,SSW,194,6.0,10.0,14,0.00,,,0.00,846.000000,,2013-05-27 17:52:00,
2013-05-27 12:21:00,67.0,15.0,-100.00,SW,236,5.0,12.0,13,0.00,,,0.00,757.000000,,2013-05-27 18:21:00,
2013-05-27 12:32:00,67.0,15.0,-100.00,SW,236,5.0,12.0,13,0.00,,,0.00,757.000000,,2013-05-27 18:32:00,
2013-05-27 12:42:00,67.0,15.0,-100.00,SW,236,5.0,12.0,13,0.00,,,0.00,757.000000,,2013-05-27 18:42:00,
2013-05-27 12:52:00,67.0,15.0,-100.00,SW,236,5.0,12.0,13,0.00,,,0.00,757.000000,,2013-05-27 18:52:00,
2013-05-27 13:21:00,70.0,13.0,-100.00,SSW,207,8.0,17.0,11,0.00,,,0.00,963.000000,,2013-05-27 19:21:00,
2013-05-27 13:32:00,70.0,13.0,-100.00,SSW,207,8.0,17.0,11,0.00,,,0.00,963.000000,,2013-05-27 19:32:00,
2013-05-27 13:41:00,70.0,13.0,-100.00,SSW,207,8.0,17.0,11,0.00,,,0.00,963.000000,,2013-05-27 19:41:00,
2013-05-27 13:52:00,70.0,13.0,-100.00,SSW,207,8.0,17.0,11,0.00,,,0.00,963.000000,,2013-05-27 19:52:00,
2013-05-27 14:22:00,70.0,15.0,-100.00,SSW,204,9.0,17.0,12,0.00,,,0.00,746.000000,,2013-05-27 20:22:00,
2013-05-27 14:32:00,70.0,15.0,-100.00,SSW,204,9.0,17.0,12,0.00,,,0.00,746.000000,,2013-05-27 20:32:00,
2013-05-27 14:42:00,70.0,15.0,-100.00,SSW,204,9.0,17.0,12,0.00,,,0.00,746.000000,,2013-05-27 20:42:00,
2013-05-27 14:52:00,70.0,15.0,-100.00,SSW,204,9.0,17.0,12,0.00,,,0.00,746.000000,,2013-05-27 20:52:00,
2013-05-27 15:21:00,71.0,7.0,-100.00,SW,224,10.0,20.0,8,0.00,,,0.00,880.000000,,2013-05-27 21:21:00,
2013-05-27 15:33:00,71.0,7.0,-100.00,SW,224,10.0,20.0,8,0.00,,,0.00,880.000000,,2013-05-27 21:33:00,
2013-05-27 15:43:00,71.0,7.0,-100.00,SW,224,10.0,20.0,8,0.00,,,0.00,880.000000,,2013-05-27 21:43:00,
2013-05-27 15:53:00,71.0,7.0,-100.00,SW,224,10.0,20.0,8,0.00,,,0.00,880.000000,,2013-05-27 21:53:00,
2013-05-27 16:22:00,71.0,7.0,-100.00,SSW,208,9.0,20.0,8,0.00,,,0.00,754.000000,,2013-05-27 22:22:00,
2013-05-27 16:32:00,71.0,7.0,-100.00,SSW,208,9.0,20.0,8,0.00,,,0.00,754.000000,,2013-05-27 22:32:00,
2013-05-27 16:42:00,71.0,7.0,-100.00,SSW,208,9.0,20.0,8,0.00,,,0.00,754.000000,,2013-05-27 22:42:00,
2013-05-27 16:52:00,71.0,7.0,-100.00,SSW,208,9.0,20.0,8,0.00,,,0.00,754.000000,,2013-05-27 22:52:00,
2013-05-27 17:22:00,70.0,9.0,-100.00,WSW,243,7.0,18.0,9,0.00,,,0.00,566.000000,,2013-05-27 23:22:00,
2013-05-27 17:32:00,70.0,9.0,-100.00,WSW,243,7.0,18.0,9,0.00,,,0.00,566.000000,,2013-05-27 23:32:00,
2013-05-27 17:42:00,70.0,9.0,-100.00,WSW,243,7.0,18.0,9,0.00,,,0.00,566.000000,,2013-05-27 23:42:00,
2013-05-27 17:52:00,70.0,9.0,-100.00,WSW,243,7.0,18.0,9,0.00,,,0.00,566.000000,,2013-05-27 23:52:00,
2013-05-27 18:21:00,68.0,9.0,-100.00,SSW,202,8.0,18.0,10,0.00,,,0.00,350.000000,,2013-05-28 00:21:00,
2013-05-27 18:31:00,68.0,9.0,-100.00,SSW,202,8.0,18.0,10,0.00,,,0.00,350.000000,,2013-05-28 00:31:00,
2013-05-27 18:41:00,68.0,9.0,-100.00,SSW,202,8.0,18.0,10,0.00,,,0.00,350.000000,,2013-05-28 00:41:00,
2013-05-27 18:51:00,68.0,9.0,-100.00,SSW,202,8.0,18.0,10,0.00,,,0.00,350.000000,,2013-05-28 00:51:00,
2013-05-27 19:21:00,67.0,11.0,-100.00,SW,217,5.0,14.0,11,0.00,,,0.00,176.000000,,2013-05-28 01:21:00,
2013-05-27 19:31:00,67.0,11.0,-100.00,SW,217,5.0,14.0,11,0.00,,,0.00,176.000000,,2013-05-28 01:31:00,
2013-05-27 19:41:00,67.0,11.0,-100.00,SW,217,5.0,14.0,11,0.00,,,0.00,176.000000,,2013-05-28 01:41:00,
2013-05-27 19:52:00,67.0,11.0,-100.00,SW,217,5.0,14.0,11,0.00,,,0.00,176.000000,,2013-05-28 01:52:00,
2013-05-27 20:21:00,65.0,11.0,-100.00,SSW,198,2.0,10.0,12,0.00,,,0.00,141.000000,,2013-05-28 02:21:00,
2013-05-27 20:32:00,65.0,11.0,-100.00,SSW,198,2.0,10.0,12,0.00,,,0.00,141.000000,,2013-05-28 02:32:00,
2013-05-27 20:41:00,65.0,11.0,-100.00,SSW,198,2.0,10.0,12,0.00,,,0.00,141.000000,,2013-05-28 02:41:00,
2013-05-27 20:51:00,65.0,11.0,-100.00,SSW,198,2.0,10.0,12,0.00,,,0.00,141.000000,,2013-05-28 02:51:00,
2013-05-27 21:21:00,60.0,9.0,-100.00,NNW,337,4.0,7.0,13,0.00,,,0.00,10.000000,,2013-05-28 03:21:00,
2013-05-27 21:33:00,60.0,9.0,-100.00,NNW,337,4.0,7.0,13,0.00,,,0.00,10.000000,,2013-05-28 03:33:00,
2013-05-27 21:43:00,60.0,9.0,-100.00,NNW,337,4.0,7.0,13,0.00,,,0.00,10.000000,,2013-05-28 03:43:00,
2013-05-27 21:53:00,60.0,9.0,-100.00,NNW,337,4.0,7.0,13,0.00,,,0.00,10.000000,,2013-05-28 03:53:00,
2013-05-27 22:22:00,57.0,10.0,-100.00,NNE,16,4.0,10.0,15,0.00,,,0.00,0.000000,,2013-05-28 04:22:00,
2013-05-27 22:33:00,57.0,10.0,-100.00,NNE,16,4.0,10.0,15,0.00,,,0.00,0.000000,,2013-05-28 04:33:00,
2013-05-27 22:42:00,57.0,10.0,-100.00,NNE,16,4.0,10.0,15,0.00,,,0.00,0.000000,,2013-05-28 04:42:00,
2013-05-27 22:52:00,57.0,10.0,-100.00,NNE,16,4.0,10.0,15,0.00,,,0.00,0.000000,,2013-05-28 04:52:00,
2013-05-27 23:22:00,55.0,8.0,-100.00,NNE,16,6.0,10.0,15,0.00,,,0.00,0.000000,,2013-05-28 05:22:00,
2013-05-27 23:32:00,55.0,8.0,-100.00,NNE,16,6.0,10.0,15,0.00,,,0.00,0.000000,,2013-05-28 05:32:00,
2013-05-27 23:42:00,55.0,8.0,-100.00,NNE,16,6.0,10.0,15,0.00,,,0.00,0.000000,,2013-05-28 05:42:00,
2013-05-27 23:52:00,55.0,8.0,-100.00,NNE,16,6.0,10.0,15,0.00,,,0.00,0.000000,,2013-05-28 05:52:00,